Flight Track Log - Related Links

Times and Time Zones

All times are in EDT time to prevent confusion due to time zone crossing. See the UAL1197 flight status page for this flight to view local times or setup timezone preferences in your user account.


Time Position Orientation Groundspeed Altitude Reporting Facility
EDT Latitude Longitude Course Direction KTS MPH feet Rate Location/Type
Tue 03:22:42 AM 37.6220 -122.3910 26° Northeast 15 17  Level FlightAware ADS-B
Tue 03:23:36 AM 37.6230 -122.3880 67° East 25 29 43 Level FlightAware ADS-B
Tue 03:23:52 AM 37.6220 -122.3880 180° South 30 35 46 Level FlightAware ADS-B
Tue 03:24:21 AM 37.6210 -122.3840 108° East 30 35 47 Level FlightAware ADS-B
Tue 03:24:56 AM 37.6210 -122.3840 108° East 32 37 49 Level FlightAware ADS-B
Tue 03:25:28 AM 37.6200 -122.3820 122° Southeast 32 37 51 Level FlightAware ADS-B
Tue 03:25:54 AM 37.6190 -122.3800 122° Southeast 28 32 53 Level FlightAware ADS-B
Tue 03:26:23 AM 37.6180 -122.3790 142° Southeast 31 36 55 Level FlightAware ADS-B
Tue 03:27:10 AM 37.6130 -122.3800 189° South 34 39 58 Level FlightAware ADS-B
Tue 03:29:00 AM 37.8101 -122.3533 345° North  Level FlightAware Approximate
Tue 03:29:42 AM 37.6070 -122.3840 345° North 27 31  Level FlightAware ADS-B
Tue 03:30:12 AM 37.6060 -122.3830 142° Southeast 22 25 86 Level FlightAware ADS-B
Tue 03:32:00 AM 37.8065 -122.3522 345° North  Level FlightAware Approximate
Tue 03:33:00 AM 37.9141 -122.3785 349° North  Level FlightAware Approximate
Tue 03:34:00 AM 37.9494 -122.2707 80° East  Level FlightAware Approximate
Tue 03:35:00 AM 37.9613 -122.1321 84° East  Level FlightAware Approximate
Tue 03:35:55 AM 37.6070 -122.3800 90° East 33 38  Level FlightAware ADS-B
Tue 03:36:00 AM 37.9667 -121.9930 90° East  Level FlightAware Approximate
Tue 03:36:28 AM 37.6220 -122.3710 25° Northeast 175 201  Level FlightAware ADS-B
Tue 03:36:43 AM 37.6333 -122.3630 29° Northeast 182 209 600 2,455 Climbing FlightAware ADS-B
Tue 03:36:50 AM 37.6392 -122.3590 28° Northeast 186 214 900 2,100 Climbing FlightAware ADS-B
Tue 03:37:03 AM 37.6497 -122.3530 24° Northeast 198 228 1,300 1,333 Climbing FlightAware ADS-B
Tue 03:37:08 AM 37.6542 -122.3510 19° North 207 238 1,300 1,059 Level FlightAware ADS-B
Tue 03:37:20 AM 37.6651 -122.3440 27° Northeast 224 258 1,600 1,364 Climbing FlightAware ADS-B
Tue 03:37:30 AM 37.6738 -122.3380 29° Northeast 235 270 1,800 2,483 Climbing FlightAware ADS-B
Tue 03:37:49 AM 37.6926 -122.3270 25° Northeast 237 273 2,800 3,250 Climbing FlightAware ADS-B
Tue 03:37:54 AM 37.6979 -122.3250 17° North 236 272 3,100 3,333 Climbing FlightAware ADS-B
Tue 03:37:58 AM 37.7023 -122.3240 10° North 239 275 3,300 2,250 Climbing FlightAware ADS-B
Tue 03:38:02 AM 37.7071 -122.3240 360° North 244 281 3,400 1,714 Climbing FlightAware ADS-B
Tue 03:38:05 AM 37.7107 -122.3240 360° North 249 287 3,500 1,000 Climbing FlightAware ADS-B
Tue 03:38:08 AM 37.7144 -122.3250 348° North 256 295 3,500 1,000 Level FlightAware ADS-B
Tue 03:38:17 AM 37.7241 -122.3290 342° North 271 312 3,700 1,500 Climbing FlightAware ADS-B
Tue 03:38:32 AM 37.7430 -122.3390 337° Northwest 290 334 4,100 2,250 Climbing FlightAware ADS-B
Tue 03:38:49 AM 37.7635 -122.3500 337° Northwest 294 338 4,900 3,455 Climbing FlightAware ADS-B
Tue 03:39:05 AM 37.7839 -122.3610 337° Northwest 282 325 6,000 3,512 Climbing FlightAware ADS-B
Tue 03:39:30 AM 37.8142 -122.3760 339° North 284 327 7,300 3,000 Climbing FlightAware ADS-B
Tue 03:39:35 AM 37.8210 -122.3780 347° North 288 331 7,500 2,100 Climbing FlightAware ADS-B
Tue 03:40:10 AM 37.8640 -122.3820 356° North 300 345 8,700 2,509 Climbing FlightAware ADS-B
Tue 03:40:30 AM 37.8957 -122.3810 North 304 350 9,800 2,743 Climbing FlightAware ADS-B
Tue 03:40:45 AM 37.9154 -122.3700 24° Northeast 308 354 10,300 1,714 Climbing FlightAware ADS-B
Tue 03:40:51 AM 37.9218 -122.3640 36° Northeast 323 372 10,400 1,385 Climbing FlightAware ADS-B
Tue 03:40:58 AM 37.9292 -122.3530 50° Northeast 330 380 10,600 1,500 Climbing FlightAware ADS-B
Tue 03:41:03 AM 37.9332 -122.3440 61° Northeast 337 388 10,700 1,241 Climbing FlightAware ADS-B
Tue 03:41:27 AM 37.9433 -122.2970 75° East 358 412 11,200 1,607 Climbing FlightAware ADS-B
Tue 03:41:59 AM 37.9462 -122.2290 87° East 372 428 12,200 2,032 Climbing FlightAware ADS-B
Tue 03:42:29 AM 37.9509 -122.1620 85° East 383 441 13,300 2,300 Climbing FlightAware ADS-B
Tue 03:42:59 AM 37.9585 -122.0950 82° East 387 445 14,500 2,262 Climbing FlightAware ADS-B
Tue 03:43:30 AM 37.9664 -122.0270 82° East 395 455 15,600 1,869 Climbing FlightAware ADS-B
Tue 03:44:00 AM 37.9743 -121.9560 82° East 412 474 16,400 1,600 Climbing FlightAware ADS-B
Tue 03:44:30 AM 37.9824 -121.8820 82° East 425 489 17,200 1,900 Climbing FlightAware ADS-B
Tue 03:45:00 AM 37.9905 -121.8070 82° East 428 493 18,300 2,043 Climbing FlightAware ADS-B
Tue 03:46:04 AM 38.0070 -121.6520 82° East 437 503 20,400 1,975 Climbing FlightAware ADS-B
Tue 03:46:19 AM 38.0119 -121.6080 82° East 441 507 20,900 1,867 Climbing FlightAware ADS-B
Tue 03:46:49 AM 38.0201 -121.5310 82° East 447 514 21,800 1,672 Climbing FlightAware ADS-B
Tue 03:47:20 AM 38.0285 -121.4520 82° East 454 522 22,600 1,574 Climbing FlightAware ADS-B
Tue 03:47:50 AM 38.0369 -121.3720 82° East 459 528 23,400 1,600 Climbing FlightAware ADS-B
Tue 03:48:20 AM 38.0453 -121.2910 82° East 464 534 24,200 1,500 Climbing FlightAware ADS-B
Tue 03:48:50 AM 38.0538 -121.2090 82° East 468 539 24,900 1,429 Climbing FlightAware ADS-B
Tue 03:49:23 AM 38.0629 -121.1200 83° East 472 543 25,700 1,406 Climbing FlightAware ADS-B
Tue 03:49:54 AM 38.0716 -121.0330 83° East 476 548 26,400 1,139 Climbing FlightAware ADS-B
Tue 03:50:42 AM 38.0840 -120.9330 81° East 482 555 27,200 1,200 Climbing FlightAware ADS-B
Tue 03:51:24 AM 38.1040 -120.7880 80° East 488 562 28,200 1,244 Climbing FlightAware ADS-B
Tue 03:52:04 AM 38.1190 -120.6770 80° East 492 566 28,900 1,317 Climbing FlightAware ADS-B
Tue 03:52:46 AM 38.1350 -120.5530 81° East 486 559 30,000 1,517 Climbing FlightAware ADS-B
Tue 03:53:31 AM 38.1510 -120.4340 80° East 482 555 31,100 1,429 Climbing FlightAware ADS-B
Tue 03:54:10 AM 38.1660 -120.3180 81° East 479 551 32,000 1,286 Climbing FlightAware ADS-B
Tue 03:54:55 AM 38.1830 -120.1930 80° East 477 549 32,900 690 Climbing FlightAware ADS-B
Tue 03:55:37 AM 38.1970 -120.0780 81° East 478 550 33,000 73 Climbing FlightAware ADS-B
Tue 03:56:17 AM 38.2120 -119.9670 80° East 479 551 33,000  Level FlightAware ADS-B
Tue 03:57:01 AM 38.2270 -119.8480 81° East 482 555 33,000 593 Level FlightAware ADS-B
Tue 03:57:38 AM 38.2400 -119.7440 81° East 478 550 33,800 1,558 Climbing FlightAware ADS-B
Tue 03:58:18 AM 38.2530 -119.6330 81° East 462 532 35,000 692 Climbing FlightAware ADS-B
Tue 03:59:22 AM 38.2730 -119.4780 81° East 466 536 35,000  Level FlightAware ADS-B
Tue 04:00:00 AM 38.2880 -119.3540 81° East 474 545 35,000  Level FlightAware ADS-B
Tue 04:00:40 AM 38.3010 -119.2440 81° East 475 547 35,000  Level FlightAware ADS-B
Tue 04:01:29 AM 38.3150 -119.1270 81° East 476 548 35,000  Level FlightAware ADS-B
Tue 04:02:09 AM 38.3270 -119.0270 81° East 470 541 35,000  Level FlightAware ADS-B
Tue 04:02:45 AM 38.3380 -118.9430 80° East 470 541 35,000  Level FlightAware ADS-B
Tue 04:03:33 AM 38.3520 -118.8310 81° East 470 541 35,000  Level FlightAware ADS-B
Tue 04:04:10 AM 38.3620 -118.7450 82° East 470 541 35,000  Level FlightAware ADS-B
Tue 04:04:58 AM 38.3760 -118.6330 81° East 470 541 35,000  Level FlightAware ADS-B
Tue 04:05:34 AM 38.3860 -118.5490 81° East 470 541 35,000  Level FlightAware ADS-B
Tue 04:06:21 AM 38.4000 -118.4400 81° East 470 541 35,000  Level FlightAware ADS-B
Tue 04:06:57 AM 38.4100 -118.3560 81° East 470 541 35,000  Level FlightAware ADS-B
Tue 04:07:46 AM 38.4250 -118.2420 80° East 470 541 35,000  Level FlightAware ADS-B
Tue 04:08:22 AM 38.4350 -118.1580 81° East 470 541 35,000  Level FlightAware ADS-B
Tue 04:09:10 AM 38.4490 -118.0460 81° East 470 541 35,000  Level FlightAware ADS-B
Tue 04:09:46 AM 38.4590 -117.9620 81° East 470 541 35,000  Level FlightAware ADS-B
Tue 04:10:26 AM 38.4710 -117.8690 81° East 470 541 35,000  Level FlightAware ADS-B
Tue 04:11:23 AM 38.4870 -117.7360 81° East 470 541 35,000  Level FlightAware ADS-B
Tue 04:12:11 AM 38.5103 -117.3878 81° East 488 562 35,000  Level Oakland Center
Tue 04:13:11 AM 38.5150 -117.2139 88° East 485 558 35,000  Level Oakland Center
Tue 04:14:11 AM 38.5000 -117.0406 96° East 486 559 35,000  Level Oakland Center
Tue 04:14:35 AM 38.4944 -116.9711 96° East 486 559 35,000  Level Salt Lake Center
Tue 04:15:12 AM 38.4864 -116.8683 96° East 484 557 35,000  Level Oakland Center
Tue 04:16:12 AM 38.4708 -116.6981 97° East 481 554 35,000  Level Oakland Center
Tue 04:17:12 AM 38.4561 -116.5281 96° East 481 554 35,000  Level Oakland Center
Tue 04:18:12 AM 38.4406 -116.3597 97° East 477 549 35,000  Level Oakland Center
Tue 04:18:37 AM 38.4356 -116.2928 95° East 477 549 35,000  Level Salt Lake Center
Tue 04:19:37 AM 38.4208 -116.1261 96° East 474 545 35,000  Level Salt Lake Center
Tue 04:20:37 AM 38.4044 -115.9564 97° East 479 551 35,000  Level Salt Lake Center
Tue 04:21:38 AM 38.3883 -115.7875 97° East 479 551 35,000  Level Salt Lake Center
Tue 04:22:38 AM 38.3728 -115.6172 97° East 482 555 35,000  Level Salt Lake Center
Tue 04:23:39 AM 38.3578 -115.4469 96° East 484 557 35,000  Level Salt Lake Center
Tue 04:24:39 AM 38.3375 -115.2494 97° East 486 559 35,000  Level Salt Lake Center
Tue 04:25:39 AM 38.3211 -115.0794 97° East 485 558 35,000  Level Salt Lake Center
Tue 04:26:40 AM 38.3031 -114.9133 98° East 477 549 35,000  Level Salt Lake Center
Tue 04:27:40 AM 38.2872 -114.7447 97° East 480 552 35,000  Level Salt Lake Center
Tue 04:28:40 AM 38.2697 -114.5769 98° East 481 554 35,000  Level Salt Lake Center
Tue 04:29:41 AM 38.2514 -114.4117 98° East 473 544 35,000  Level Salt Lake Center
Tue 04:30:41 AM 38.2167 -114.2528 105° East 466 536 35,000  Level Salt Lake Center
Tue 04:31:41 AM 38.1806 -114.0958 106° East 464 534 35,000  Level Salt Lake Center
Tue 04:32:42 AM 38.1431 -113.9394 107° East 464 534 35,000  Level Salt Lake Center
Tue 04:33:42 AM 38.1058 -113.7828 107° East 464 534 35,000  Level Salt Lake Center
Tue 04:34:42 AM 38.0678 -113.6267 107° East 463 533 35,000  Level Salt Lake Center
Tue 04:35:43 AM 38.0306 -113.4703 107° East 463 533 35,000  Level Salt Lake Center
Tue 04:36:43 AM 37.9925 -113.3142 107° East 462 532 35,000  Level Salt Lake Center
Tue 04:37:43 AM 37.9550 -113.1569 107° East 464 534 35,000  Level Salt Lake Center
Tue 04:38:44 AM 37.9172 -113.0011 107° East 461 531 35,000  Level Salt Lake Center
Tue 04:39:44 AM 37.8794 -112.8461 107° East 458 527 35,000  Level Salt Lake Center
Tue 04:40:44 AM 37.8408 -112.6897 107° East 459 528 35,000  Level Salt Lake Center
Tue 04:41:45 AM 37.8022 -112.5350 107° East 458 527 35,000  Level Salt Lake Center
Tue 04:42:45 AM 37.7631 -112.3811 108° East 458 527 35,000  Level Salt Lake Center
Tue 04:43:45 AM 37.7236 -112.2264 108° East 459 528 35,000  Level Salt Lake Center
Tue 04:44:46 AM 37.6842 -112.0703 108° East 465 535 35,000  Level Salt Lake Center
Tue 04:45:46 AM 37.6433 -111.9147 108° East 467 537 35,000  Level Salt Lake Center
Tue 04:46:46 AM 37.6031 -111.7578 108° East 470 541 35,000  Level Salt Lake Center
Tue 04:47:46 AM 37.5611 -111.6006 109° East 473 544 35,000  Level Salt Lake Center
Tue 04:48:47 AM 37.5206 -111.4442 108° East 471 542 35,000  Level Salt Lake Center
Tue 04:49:47 AM 37.4789 -111.2892 109° East 470 541 35,000  Level Salt Lake Center
Tue 04:50:47 AM 37.4311 -111.1408 112° Southeast 461 531 35,000  Level Salt Lake Center
Tue 04:51:02 AM 37.4192 -111.1119 117° Southeast 459 528 35,000  Level Denver Center
Tue 04:52:03 AM 37.3658 -110.9672 115° Southeast 460 529 35,000  Level Denver Center
Tue 04:53:03 AM 37.3142 -110.8247 114° Southeast 449 517 35,000  Level Denver Center
Tue 04:54:03 AM 37.2628 -110.6828 114° Southeast 447 514 35,000  Level Denver Center
Tue 04:55:04 AM 37.2103 -110.5400 115° Southeast 451 519 35,000  Level Denver Center
Tue 04:56:04 AM 37.1572 -110.3969 115° Southeast 453 521 35,000  Level Denver Center
Tue 04:57:05 AM 37.1050 -110.2558 115° Southeast 447 514 35,000  Level Denver Center
Tue 04:58:05 AM 37.0519 -110.1097 114° Southeast 445 512 35,000  Level Denver Center
Tue 04:59:05 AM 37.0014 -109.9750 115° Southeast 446 513 35,000  Level Denver Center
Tue 05:00:06 AM 36.9411 -109.8156 115° Southeast 452 520 35,000  Level Denver Center
Tue 05:01:06 AM 36.8900 -109.6794 115° Southeast 450 518 35,000  Level Denver Center
Tue 05:02:06 AM 36.8383 -109.5419 115° Southeast 455 524 35,000  Level Denver Center
Tue 05:03:07 AM 36.7781 -109.3817 115° Southeast 456 525 35,000  Level Denver Center
Tue 05:04:07 AM 36.7269 -109.2486 116° Southeast 448 516 35,000 -298 Level Denver Center
Tue 05:05:08 AM 36.6764 -109.1133 115° Southeast 448 516 34,400 -744 Descending Denver Center
Tue 05:06:08 AM 36.6233 -108.9767 116° Southeast 454 522 33,500 -700 Descending Denver Center
Tue 05:07:08 AM 36.5597 -108.8153 116° Southeast 462 532 33,000 -248 Descending Denver Center
Tue 05:08:09 AM 36.5061 -108.6761 116° Southeast 464 534 33,000  Level Denver Center
Tue 05:09:09 AM 36.4528 -108.5386 116° Southeast 460 529 33,000  Level Denver Center
Tue 05:14:52 AM 36.1230 -107.7100 116° Southeast 457 526 33,000  Level FlightAware ADS-B
Tue 05:15:32 AM 36.0850 -107.6150 116° Southeast 455 524 33,000  Level FlightAware ADS-B
Tue 05:16:12 AM 36.0470 -107.5210 117° Southeast 454 522 33,000  Level FlightAware ADS-B
Tue 05:16:56 AM 36.0130 -107.4360 116° Southeast 454 522 33,000  Level FlightAware ADS-B
Tue 05:17:32 AM 35.9720 -107.3360 117° Southeast 456 525 33,000  Level FlightAware ADS-B
Tue 05:18:20 AM 35.9270 -107.2240 116° Southeast 455 524 33,000  Level FlightAware ADS-B
Tue 05:19:00 AM 35.8900 -107.1340 117° Southeast 456 525 33,000  Level FlightAware ADS-B
Tue 05:19:44 AM 35.8470 -107.0300 117° Southeast 457 526 33,000  Level FlightAware ADS-B
Tue 05:20:38 AM 35.7960 -106.9050 117° Southeast 458 527 33,000  Level FlightAware ADS-B
Tue 05:21:24 AM 35.7520 -106.7990 117° Southeast 458 527 33,000  Level FlightAware ADS-B
Tue 05:22:04 AM 35.7140 -106.7070 117° Southeast 458 527 33,000  Level FlightAware ADS-B
Tue 05:22:44 AM 35.6750 -106.6130 117° Southeast 457 526 33,000  Level FlightAware ADS-B
Tue 05:23:30 AM 35.6310 -106.5080 117° Southeast 454 522 33,000  Level FlightAware ADS-B
Tue 05:24:07 AM 35.6020 -106.4370 117° Southeast 453 521 33,000  Level FlightAware ADS-B
Tue 05:24:52 AM 35.5520 -106.3190 117° Southeast 453 521 33,000  Level FlightAware ADS-B
Tue 05:25:28 AM 35.5180 -106.2360 117° Southeast 451 519 33,000  Level FlightAware ADS-B
Tue 05:26:16 AM 35.4730 -106.1290 117° Southeast 449 517 33,000  Level FlightAware ADS-B
Tue 05:26:56 AM 35.4350 -106.0390 117° Southeast 449 517 33,000  Level FlightAware ADS-B
Tue 05:27:38 AM 35.3940 -105.9430 118° Southeast 449 517 33,000  Level FlightAware ADS-B
Tue 05:28:22 AM 35.3520 -105.8430 117° Southeast 448 516 33,000  Level FlightAware ADS-B
Tue 05:29:05 AM 35.3120 -105.7480 117° Southeast 447 514 33,000  Level FlightAware ADS-B
Tue 05:29:43 AM 35.2800 -105.6730 118° Southeast 447 514 33,000  Level FlightAware ADS-B
Tue 05:30:31 AM 35.2410 -105.5810 117° Southeast 447 514 33,000  Level FlightAware ADS-B
Tue 05:31:07 AM 35.2130 -105.5120 116° Southeast 447 514 33,000  Level FlightAware ADS-B
Tue 05:31:24 AM 35.1771 -105.4350 120° Southeast 449 517 33,000  Level FlightAware ADS-B
Tue 05:31:57 AM 35.1456 -105.3620 118° Southeast 454 522 33,000  Level FlightAware ADS-B
Tue 05:32:27 AM 35.1156 -105.2920 118° Southeast 456 525 33,000  Level FlightAware ADS-B
Tue 05:32:58 AM 35.0851 -105.2220 118° Southeast 454 522 33,000  Level FlightAware ADS-B
Tue 05:33:28 AM 35.0558 -105.1540 118° Southeast 453 521 33,000  Level FlightAware ADS-B
Tue 05:34:00 AM 35.0252 -105.0840 118° Southeast 454 522 33,000  Level FlightAware ADS-B
Tue 05:34:30 AM 34.9948 -105.0140 118° Southeast 456 525 33,000  Level FlightAware ADS-B
Tue 05:35:01 AM 34.9644 -104.9440 118° Southeast 457 526 33,000  Level FlightAware ADS-B
Tue 05:35:31 AM 34.9347 -104.8760 118° Southeast 459 528 33,000  Level FlightAware ADS-B
Tue 05:36:01 AM 34.9048 -104.8070 118° Southeast 459 528 33,000  Level FlightAware ADS-B
Tue 05:37:38 AM 34.8078 -104.5870 118° Southeast 459 528 33,000  Level FlightAware ADS-B
Tue 05:38:23 AM 34.7622 -104.4840 118° Southeast 459 528 33,000  Level FlightAware ADS-B
Tue 05:39:20 AM 34.7057 -104.3560 118° Southeast 459 528 33,000  Level FlightAware ADS-B
Tue 05:40:33 AM 34.6323 -104.1910 118° Southeast 458 527 33,000  Level FlightAware ADS-B
Tue 05:41:07 AM 34.5977 -104.1140 119° Southeast 457 526 33,000  Level FlightAware ADS-B
Tue 05:41:44 AM 34.5606 -104.0310 118° Southeast 456 525 33,000  Level FlightAware ADS-B
Tue 05:42:15 AM 34.5298 -103.9620 118° Southeast 456 525 33,000  Level FlightAware ADS-B
Tue 05:42:46 AM 34.4981 -103.8920 119° Southeast 456 525 33,000  Level FlightAware ADS-B
Tue 05:43:16 AM 34.4676 -103.8240 119° Southeast 456 525 33,000  Level FlightAware ADS-B
Tue 05:43:46 AM 34.4373 -103.7570 119° Southeast 456 525 33,000  Level FlightAware ADS-B
Tue 05:44:17 AM 34.4063 -103.6880 119° Southeast 456 525 33,000  Level FlightAware ADS-B
Tue 05:44:47 AM 34.3758 -103.6210 119° Southeast 456 525 33,000  Level FlightAware ADS-B
Tue 05:45:18 AM 34.3448 -103.5530 119° Southeast 455 524 33,000  Level FlightAware ADS-B
Tue 05:45:48 AM 34.3143 -103.4860 119° Southeast 455 524 33,000  Level FlightAware ADS-B
Tue 05:46:18 AM 34.2833 -103.4180 119° Southeast 455 524 33,000  Level FlightAware ADS-B
Tue 05:46:50 AM 34.2508 -103.3470 119° Southeast 455 524 33,000  Level FlightAware ADS-B
Tue 05:47:25 AM 34.2160 -103.2710 119° Southeast 455 524 33,000  Level FlightAware ADS-B
Tue 05:47:55 AM 34.1854 -103.2040 119° Southeast 456 525 33,000  Level FlightAware ADS-B
Tue 05:48:25 AM 34.1547 -103.1370 119° Southeast 456 525 33,000  Level FlightAware ADS-B
Tue 05:49:08 AM 34.1102 -103.0410 119° Southeast 456 525 33,000  Level FlightAware ADS-B
Tue 05:49:39 AM 34.0788 -102.9730 119° Southeast 457 526 33,000  Level FlightAware ADS-B
Tue 05:50:10 AM 34.0466 -102.9030 119° Southeast 458 527 33,000  Level FlightAware ADS-B
Tue 05:50:42 AM 34.0141 -102.8330 119° Southeast 459 528 33,000  Level FlightAware ADS-B
Tue 05:51:13 AM 33.9813 -102.7620 119° Southeast 459 528 33,000  Level FlightAware ADS-B
Tue 05:51:44 AM 33.9500 -102.6950 119° Southeast 458 527 33,000  Level FlightAware ADS-B
Tue 05:52:14 AM 33.9189 -102.6280 119° Southeast 458 527 33,000  Level FlightAware ADS-B
Tue 05:52:44 AM 33.8874 -102.5610 120° Southeast 458 527 33,000  Level FlightAware ADS-B
Tue 05:53:14 AM 33.8561 -102.4940 119° Southeast 458 527 33,000  Level FlightAware ADS-B
Tue 05:53:44 AM 33.8247 -102.4270 119° Southeast 458 527 33,000  Level FlightAware ADS-B
Tue 05:54:32 AM 33.7756 -102.3220 119° Southeast 458 527 33,000  Level FlightAware ADS-B
Tue 05:55:02 AM 33.7437 -102.2550 120° Southeast 457 526 33,000  Level FlightAware ADS-B
Tue 05:55:33 AM 33.7120 -102.1880 120° Southeast 457 526 33,000  Level FlightAware ADS-B
Tue 05:56:03 AM 33.6804 -102.1210 120° Southeast 457 526 33,000  Level FlightAware ADS-B
Tue 05:56:37 AM 33.6453 -102.0470 120° Southeast 456 525 33,000  Level FlightAware ADS-B
Tue 05:57:07 AM 33.6137 -101.9800 120° Southeast 455 524 33,000  Level FlightAware ADS-B
Tue 05:59:58 AM 33.4352 -101.6060 120° Southeast 455 524 33,000  Level FlightAware ADS-B
Tue 06:00:29 AM 33.4025 -101.5390 120° Southeast 455 524 33,000  Level FlightAware ADS-B
Tue 06:00:59 AM 33.3710 -101.4730 120° Southeast 455 524 33,000  Level FlightAware ADS-B
Tue 06:01:29 AM 33.3395 -101.4080 120° Southeast 455 524 33,000  Level FlightAware ADS-B
Tue 06:01:59 AM 33.3079 -101.3420 120° Southeast 456 525 33,000  Level FlightAware ADS-B
Tue 06:02:30 AM 33.2755 -101.2750 120° Southeast 457 526 33,000  Level FlightAware ADS-B
Tue 06:03:01 AM 33.2430 -101.2080 120° Southeast 458 527 33,000  Level FlightAware ADS-B
Tue 06:03:31 AM 33.2111 -101.1430 120° Southeast 460 529 33,000  Level FlightAware ADS-B
Tue 06:04:01 AM 33.1789 -101.0760 120° Southeast 459 528 33,000  Level FlightAware ADS-B
Tue 06:04:31 AM 33.1463 -101.0100 121° Southeast 459 528 33,000  Level FlightAware ADS-B
Tue 06:05:33 AM 33.0801 -100.8740 120° Southeast 460 529 33,000  Level FlightAware ADS-B
Tue 06:06:08 AM 33.0433 -100.7990 120° Southeast 460 529 33,000  Level FlightAware ADS-B
Tue 06:06:38 AM 33.0107 -100.7330 120° Southeast 460 529 33,000  Level FlightAware ADS-B
Tue 06:07:12 AM 32.9742 -100.6590 120° Southeast 459 528 33,000  Level FlightAware ADS-B
Tue 06:09:10 AM 32.8480 -100.4040 120° Southeast 458 527 33,000  Level FlightAware ADS-B
Tue 06:09:37 AM 32.8180 -100.3430 120° Southeast 459 528 33,000  Level FlightAware ADS-B
Tue 06:10:52 AM 32.7380 -100.1830 121° Southeast 459 528 33,000  Level FlightAware ADS-B
Tue 06:11:29 AM 32.7050 -100.1180 121° Southeast 459 528 33,000  Level FlightAware ADS-B
Tue 06:12:19 AM 32.6434 -99.9939 120° Southeast 459 528 33,000  Level FlightAware ADS-B
Tue 06:12:57 AM 32.6020 -99.9110 121° Southeast 459 528 33,000  Level FlightAware ADS-B
Tue 06:13:08 AM 32.5895 -99.8864 121° Southeast 459 528 33,000  Level FlightAware ADS-B
Tue 06:13:38 AM 32.5580 -99.8230 121° Southeast 458 527 33,000  Level FlightAware ADS-B
Tue 06:13:45 AM 32.5494 -99.8069 122° Southeast 459 528 33,000  Level FlightAware ADS-B
Tue 06:14:17 AM 32.5150 -99.7380 121° Southeast 458 527 33,000  Level FlightAware ADS-B
Tue 06:15:04 AM 32.4640 -99.6380 121° Southeast 460 529 33,000  Level FlightAware ADS-B
Tue 06:15:44 AM 32.4200 -99.5520 121° Southeast 462 532 33,000  Level FlightAware ADS-B
Tue 06:16:23 AM 32.3770 -99.4660 121° Southeast 462 532 33,000  Level FlightAware ADS-B
Tue 06:17:07 AM 32.3310 -99.3760 121° Southeast 464 534 33,000  Level FlightAware ADS-B
Tue 06:17:52 AM 32.2790 -99.2750 121° Southeast 463 533 33,000  Level FlightAware ADS-B
Tue 06:18:32 AM 32.2370 -99.1920 121° Southeast 462 532 33,000  Level FlightAware ADS-B
Tue 06:19:14 AM 32.1880 -99.0980 122° Southeast 460 529 33,000  Level FlightAware ADS-B
Tue 06:19:57 AM 32.1400 -99.0040 121° Southeast 459 528 33,000  Level FlightAware ADS-B
Tue 06:20:52 AM 32.0792 -98.8860 121° Southeast 458 527 33,000  Level FlightAware ADS-B
Tue 06:21:34 AM 32.0340 -98.7990 121° Southeast 456 525 33,000  Level FlightAware ADS-B
Tue 06:22:14 AM 31.9900 -98.7140 121° Southeast 455 524 33,000  Level FlightAware ADS-B
Tue 06:22:59 AM 31.9410 -98.6200 122° Southeast 453 521 33,000  Level FlightAware ADS-B
Tue 06:23:39 AM 31.8970 -98.5350 121° Southeast 454 522 33,000  Level FlightAware ADS-B
Tue 06:24:22 AM 31.8490 -98.4440 122° Southeast 456 525 33,000  Level FlightAware ADS-B
Tue 06:25:04 AM 31.8020 -98.3540 122° Southeast 456 525 33,000  Level FlightAware ADS-B
Tue 06:25:45 AM 31.7580 -98.2700 122° Southeast 457 526 33,000  Level FlightAware ADS-B
Tue 06:26:30 AM 31.7070 -98.1740 122° Southeast 457 526 33,000  Level FlightAware ADS-B
Tue 06:27:09 AM 31.6650 -98.0930 121° Southeast 456 525 33,000  Level FlightAware ADS-B
Tue 06:27:49 AM 31.6200 -98.0080 122° Southeast 456 525 33,000  Level FlightAware ADS-B
Tue 06:28:33 AM 31.5710 -97.9150 122° Southeast 456 525 33,000  Level FlightAware ADS-B
Tue 06:29:07 AM 31.5330 -97.8440 122° Southeast 458 527 33,000  Level FlightAware ADS-B
Tue 06:29:37 AM 31.4987 -97.7797 122° Southeast 457 526 33,000  Level FlightAware ADS-B
Tue 06:30:08 AM 31.4642 -97.7152 122° Southeast 460 529 33,000  Level FlightAware ADS-B
Tue 06:30:39 AM 31.4298 -97.6507 122° Southeast 460 529 33,000  Level FlightAware ADS-B
Tue 06:31:12 AM 31.3926 -97.5807 122° Southeast 459 528 33,000  Level FlightAware ADS-B
Tue 06:31:42 AM 31.3586 -97.5171 122° Southeast 460 529 33,000  Level FlightAware ADS-B
Tue 06:32:13 AM 31.3239 -97.4525 122° Southeast 460 529 33,000  Level FlightAware ADS-B
Tue 06:32:43 AM 31.2898 -97.3890 122° Southeast 459 528 33,000  Level FlightAware ADS-B
Tue 06:33:13 AM 31.2553 -97.3250 122° Southeast 459 528 33,000  Level FlightAware ADS-B
Tue 06:33:44 AM 31.2211 -97.2614 122° Southeast 457 526 33,000  Level FlightAware ADS-B
Tue 06:34:14 AM 31.1868 -97.1980 122° Southeast 456 525 33,000 -407 Level FlightAware ADS-B
Tue 06:34:43 AM 31.1522 -97.1385 126° Southeast 455 524 32,600 -900 Descending FlightAware ADS-B
Tue 06:35:14 AM 31.1098 -97.0831 132° Southeast 456 525 32,100 -984 Descending FlightAware ADS-B
Tue 06:36:45 AM 30.9804 -96.9183 133° Southeast 454 522 30,600 -1,470 Descending FlightAware ADS-B
Tue 06:37:45 AM 30.8962 -96.8117 133° Southeast 440 506 28,400 -2,200 Descending FlightAware ADS-B
Tue 06:38:15 AM 30.8550 -96.7597 133° Southeast 432 497 27,300 -2,164 Descending FlightAware ADS-B
Tue 06:38:46 AM 30.8145 -96.7081 132° Southeast 424 488 26,200 -2,066 Descending FlightAware ADS-B
Tue 06:39:16 AM 30.7751 -96.6584 133° Southeast 415 478 25,200 -2,100 Descending FlightAware ADS-B
Tue 06:39:46 AM 30.7362 -96.6094 133° Southeast 406 467 24,100 -2,044 Descending FlightAware ADS-B
Tue 06:40:47 AM 30.6607 -96.5143 133° Southeast 388 447 22,100 -1,895 Descending FlightAware ADS-B
Tue 06:42:18 AM 30.5537 -96.3798 133° Southeast 363 418 19,300 -1,835 Descending FlightAware ADS-B
Tue 06:42:48 AM 30.5198 -96.3375 133° Southeast 355 409 18,400 -1,800 Descending FlightAware ADS-B
Tue 06:43:18 AM 30.4863 -96.2954 133° Southeast 348 400 17,500 -1,900 Descending FlightAware ADS-B
Tue 06:43:48 AM 30.4533 -96.2545 133° Southeast 342 394 16,500 -1,869 Descending FlightAware ADS-B
Tue 06:44:19 AM 30.4210 -96.2143 133° Southeast 337 388 15,600 -1,934 Descending FlightAware ADS-B
Tue 06:45:49 AM 30.3259 -96.0957 133° Southeast 328 377 12,600 -1,983 Descending FlightAware ADS-B
Tue 06:46:20 AM 30.2946 -96.0573 133° Southeast 322 371 11,600 -1,574 Descending FlightAware ADS-B
Tue 06:46:50 AM 30.2645 -96.0193 133° Southeast 306 352 11,000 -1,171 Descending FlightAware ADS-B
Tue 06:47:42 AM 30.2171 -95.9606 133° Southeast 283 326 10,000 -1,254 Descending FlightAware ADS-B
Tue 06:47:57 AM 30.2038 -95.9443 133° Southeast 280 322 9,600 -1,400 Descending FlightAware ADS-B
Tue 06:48:12 AM 30.1907 -95.9279 133° Southeast 275 316 9,300 -1,558 Descending FlightAware ADS-B
Tue 06:49:14 AM 30.1371 -95.8616 133° Southeast 270 311 7,600 -1,615 Descending FlightAware ADS-B
Tue 06:49:30 AM 30.1242 -95.8457 133° Southeast 266 306 7,200 -1,149 Descending FlightAware ADS-B
Tue 06:50:01 AM 30.0987 -95.8141 133° Southeast 253 291 6,700 -1,174 Descending FlightAware ADS-B
Tue 06:50:16 AM 30.0868 -95.7992 133° Southeast 248 285 6,300 -1,400 Descending FlightAware ADS-B
Tue 06:50:31 AM 30.0757 -95.7853 133° Southeast 243 280 6,000 -1,161 Descending FlightAware ADS-B
Tue 06:50:47 AM 30.0635 -95.7705 134° Southeast 238 274 5,700 -1,161 Descending FlightAware ADS-B
Tue 06:51:02 AM 30.0521 -95.7565 133° Southeast 235 270 5,400 -1,333 Descending FlightAware ADS-B
Tue 06:51:14 AM 30.0430 -95.7454 133° Southeast 233 268 5,100 -1,200 Descending FlightAware ADS-B
Tue 06:51:32 AM 30.0301 -95.7294 133° Southeast 229 264 4,800 -909 Descending FlightAware ADS-B
Tue 06:51:47 AM 30.0195 -95.7163 133° Southeast 221 254 4,600 -968 Descending FlightAware ADS-B
Tue 06:52:03 AM 30.0080 -95.7022 133° Southeast 213 245 4,300 -889 Descending FlightAware ADS-B
Tue 06:52:14 AM 30.0010 -95.6933 132° Southeast 211 243 4,200 -800 Descending FlightAware ADS-B
Tue 06:52:18 AM 29.9988 -95.6899 127° Southeast 213 245 4,100 -857 Descending FlightAware ADS-B
Tue 06:52:21 AM 29.9972 -95.6869 122° Southeast 214 246 4,100 -1,000 Level FlightAware ADS-B
Tue 06:52:24 AM 29.9958 -95.6839 118° Southeast 216 249 4,000 -1,500 Descending FlightAware ADS-B
Tue 06:52:29 AM 29.9940 -95.6781 110° East 219 252 3,900 -667 Descending FlightAware ADS-B
Tue 06:52:33 AM 29.9931 -95.6731 102° East 223 257 3,900  Level FlightAware ADS-B
Tue 06:52:41 AM 29.9927 -95.6645 93° East 224 258 3,900  Level FlightAware ADS-B
Tue 06:52:56 AM 29.9931 -95.6461 89° East 228 262 3,900  Level FlightAware ADS-B
Tue 06:53:06 AM 29.9930 -95.6342 91° East 227 261 3,900  Level FlightAware ADS-B
Tue 06:53:23 AM 29.9927 -95.6132 91° East 219 252 3,900  Level FlightAware ADS-B
Tue 06:53:39 AM 29.9928 -95.5955 90° East 209 241 3,900 -563 Level FlightAware ADS-B
Tue 06:53:55 AM 29.9929 -95.5783 90° East 205 236 3,600 -1,029 Descending FlightAware ADS-B
Tue 06:54:14 AM 29.9930 -95.5572 90° East 199 229 3,300 -1,029 Descending FlightAware ADS-B
Tue 06:54:30 AM 29.9931 -95.5402 90° East 195 224 3,000 -909 Descending FlightAware ADS-B
Tue 06:54:47 AM 29.9932 -95.5231 90° East 192 221 2,800 -1,034 Descending FlightAware ADS-B
Tue 06:54:59 AM 29.9932 -95.5105 90° East 187 215 2,500 -1,071 Descending FlightAware ADS-B
Tue 06:55:15 AM 29.9932 -95.4951 90° East 183 211 2,300 -774 Descending FlightAware ADS-B
Tue 06:55:30 AM 29.9932 -95.4803 90° East 180 207 2,100 -977 Descending FlightAware ADS-B
Tue 06:55:58 AM 29.9933 -95.4539 89° East 171 197 1,600 -894 Descending FlightAware ADS-B
Tue 06:56:17 AM 29.9933 -95.4374 90° East 167 192 1,400 -706 Descending FlightAware ADS-B
Tue 06:56:32 AM 29.9934 -95.4248 89° East 152 175 1,200 -800 Descending FlightAware ADS-B
Tue 06:56:47 AM 29.9934 -95.4133 90° East 151 174 1,000 -818 Descending FlightAware ADS-B
Tue 06:56:54 AM 29.9934 -95.4071 90° East 152 175 900 -1,000 Descending FlightAware ADS-B
Tue 06:56:59 AM 29.9934 -95.4031 90° East 152 175 800 -667 Descending FlightAware ADS-B
Tue 06:57:03 AM 29.9934 -95.3998 90° East 151 174 800 -750 Level FlightAware ADS-B
Tue 06:57:07 AM 29.9934 -95.3968 90° East 154 177 700 -1,000 Descending FlightAware ADS-B
Tue 06:57:15 AM 29.9934 -95.3905 90° East 153 176 600 -750 Descending FlightAware ADS-B
Tue 06:57:23 AM 29.9934 -95.3835 90° East 154 177 500 -857 Descending FlightAware ADS-B
Tue 06:57:36 AM 29.9934 -95.3732 90° East 154 177 300 -720 Descending FlightAware ADS-B
Tue 06:57:48 AM 29.9934 -95.3631 90° East 153 176 200 -667 Descending FlightAware ADS-B
Tue 06:57:54 AM 29.9934 -95.3580 90° East 153 176 100 -1,000 Descending FlightAware ADS-B

Login

Don't have an account? Register now (free) for customized features, flight alerts, and more!